createdAt,value
2018-06-05T00:02:25.478Z,54.96
2018-06-05T00:04:53.905Z,55.08
2018-06-05T00:07:22.268Z,55.51
2018-06-05T00:09:50.614Z,55.48
2018-06-05T00:12:18.971Z,58.41
2018-06-05T00:14:47.327Z,55.41
2018-06-05T00:17:15.731Z,60.79
2018-06-05T00:19:44.065Z,55.92
2018-06-05T00:22:12.561Z,56.36
2018-06-05T00:24:41.052Z,56.28
2018-06-05T00:27:09.320Z,61.40
2018-06-05T00:29:37.754Z,56.62
2018-06-05T00:32:06.255Z,56.59
2018-06-05T00:34:34.569Z,60.42
2018-06-05T00:37:03.752Z,57.15
2018-06-05T00:39:32.371Z,57.95
2018-06-05T00:42:00.654Z,57.69
2018-06-05T00:44:28.981Z,58.87
2018-06-05T00:46:57.270Z,60.78
2018-06-05T00:49:25.553Z,60.52
2018-06-05T00:52:05.177Z,59.00
2018-06-05T00:54:33.500Z,59.20
2018-06-05T00:57:01.899Z,58.30
2018-06-05T00:59:30.377Z,61.04
2018-06-05T01:01:58.671Z,58.67
2018-06-05T01:04:27.072Z,60.01
2018-06-05T01:06:55.455Z,59.81
2018-06-05T01:09:24.411Z,60.29
2018-06-05T01:11:52.788Z,59.23
2018-06-05T01:14:21.031Z,59.70
2018-06-05T01:16:49.488Z,60.44
2018-06-05T01:19:17.863Z,61.54
2018-06-05T01:21:46.403Z,62.79
2018-06-05T01:24:14.925Z,60.93
2018-06-05T01:26:43.574Z,60.49
2018-06-05T01:29:12.045Z,62.64
2018-06-05T01:31:40.434Z,60.44
2018-06-05T01:34:08.775Z,63.47
2018-06-05T01:36:37.179Z,61.93
2018-06-05T01:39:08.968Z,62.13
2018-06-05T01:41:38.214Z,63.17
2018-06-05T01:44:06.560Z,66.84
2018-06-05T01:46:34.944Z,63.63
2018-06-05T01:49:03.323Z,64.60
2018-06-05T01:51:31.784Z,63.06
2018-06-05T01:54:00.146Z,62.68
2018-06-05T01:56:28.523Z,64.46
2018-06-05T01:58:56.917Z,63.15
2018-06-05T02:01:25.626Z,63.62
2018-06-05T02:03:53.983Z,63.45
2018-06-05T02:06:22.351Z,64.73
2018-06-05T02:08:50.692Z,63.74
2018-06-05T02:11:19.059Z,64.58
2018-06-05T02:13:47.392Z,63.57
2018-06-05T02:16:15.703Z,63.92
2018-06-05T02:18:44.175Z,63.46
2018-06-05T02:21:12.631Z,63.51
2018-06-05T02:23:41.085Z,64.10
2018-06-05T02:26:09.838Z,63.96
2018-06-05T02:28:39.095Z,64.50
2018-06-05T02:31:07.375Z,64.92
2018-06-05T02:33:35.929Z,64.75
2018-06-05T02:36:05.142Z,65.27
2018-06-05T02:38:33.458Z,63.77
2018-06-05T02:41:01.788Z,65.04
2018-06-05T02:43:30.091Z,63.63
2018-06-05T02:45:58.454Z,64.27
2018-06-05T02:48:26.777Z,63.36
2018-06-05T02:50:55.094Z,63.54
2018-06-05T02:53:23.410Z,63.94
2018-06-05T02:55:51.841Z,63.78
2018-06-05T02:58:20.230Z,64.83
2018-06-05T03:00:48.573Z,64.90
2018-06-05T03:03:16.888Z,65.46
2018-06-05T03:05:45.137Z,63.97
2018-06-05T03:08:13.495Z,65.11
2018-06-05T03:10:41.843Z,64.43
2018-06-05T03:13:10.735Z,62.70
2018-06-05T03:15:39.068Z,63.66
2018-06-05T03:18:07.428Z,64.79
2018-06-05T03:20:35.816Z,64.83
2018-06-05T03:23:04.105Z,65.36
2018-06-05T03:25:37.749Z,64.61
2018-06-05T03:28:06.498Z,64.72
2018-06-05T03:30:35.058Z,64.81
2018-06-05T03:33:03.379Z,65.57
2018-06-05T03:35:31.675Z,65.42
2018-06-05T03:38:00.108Z,68.16
2018-06-05T03:40:28.387Z,65.10
2018-06-05T03:42:56.747Z,63.50
2018-06-05T03:45:25.113Z,63.75
2018-06-05T03:47:53.424Z,64.44
2018-06-05T03:50:21.802Z,63.44
2018-06-05T03:52:50.165Z,62.03
2018-06-05T03:55:18.533Z,62.84
2018-06-05T03:57:47.295Z,62.30
2018-06-05T04:00:15.629Z,66.04
2018-06-05T04:02:44.034Z,62.32
2018-06-05T04:05:12.463Z,60.41
2018-06-05T04:07:40.792Z,59.44
2018-06-05T04:10:09.328Z,59.72
2018-06-05T04:12:37.858Z,59.62
2018-06-05T04:15:06.225Z,58.60
2018-06-05T04:17:34.764Z,56.99
2018-06-05T04:20:03.025Z,57.60
2018-06-05T04:22:31.307Z,57.60
2018-06-05T04:24:59.784Z,56.90
2018-06-05T04:27:28.608Z,56.35
2018-06-05T04:29:56.953Z,54.59
2018-06-05T04:32:25.319Z,53.87
2018-06-05T04:34:53.732Z,55.93
2018-06-05T04:37:22.097Z,55.31
2018-06-05T04:39:50.494Z,52.80
2018-06-05T04:42:18.804Z,54.20
2018-06-05T04:44:47.179Z,54.09
2018-06-05T04:47:15.497Z,52.54
2018-06-05T04:49:43.956Z,53.72
2018-06-05T04:52:12.242Z,52.26
2018-06-05T04:54:40.564Z,53.13
2018-06-05T04:57:08.910Z,55.88
2018-06-05T04:59:37.236Z,54.51
2018-06-05T05:02:05.735Z,54.55
2018-06-05T05:04:34.158Z,54.61
2018-06-05T05:07:02.706Z,53.14
2018-06-05T05:09:31.416Z,52.11
2018-06-05T05:12:00.037Z,52.56
2018-06-05T05:14:28.643Z,51.09
2018-06-05T05:16:57.045Z,51.71
2018-06-05T05:19:25.500Z,50.21
2018-06-05T05:21:53.970Z,50.60
2018-06-05T05:24:22.495Z,50.01
2018-06-05T05:26:50.833Z,49.43
2018-06-05T05:29:19.182Z,49.68
2018-06-05T05:31:47.579Z,49.51
2018-06-05T05:34:16.034Z,48.78
2018-06-05T05:36:44.864Z,48.57
2018-06-05T05:39:13.358Z,46.92
2018-06-05T05:41:41.737Z,49.16
2018-06-05T05:44:10.112Z,47.99
2018-06-05T05:46:38.461Z,49.38
2018-06-05T05:49:06.794Z,48.51
2018-06-05T05:51:35.131Z,50.12
2018-06-05T05:54:03.447Z,49.28
2018-06-05T05:56:31.822Z,49.50
2018-06-05T05:59:00.939Z,50.49
2018-06-05T06:01:29.289Z,48.33
2018-06-05T06:03:58.250Z,48.11
2018-06-05T06:06:26.595Z,48.59
2018-06-05T06:08:54.944Z,49.70
2018-06-05T06:11:23.261Z,49.32
2018-06-05T06:13:51.624Z,49.96
2018-06-05T06:16:20.029Z,49.80
2018-06-05T06:18:48.450Z,50.52
2018-06-05T06:21:17.331Z,49.53
2018-06-05T06:23:45.672Z,52.45
2018-06-05T06:26:13.988Z,50.27
2018-06-05T06:28:42.443Z,49.89
2018-06-05T06:31:10.841Z,50.40
2018-06-05T06:33:39.507Z,49.48
2018-06-05T06:36:07.915Z,49.42
2018-06-05T06:38:36.445Z,49.17
2018-06-05T06:41:05.118Z,49.15
2018-06-05T06:43:33.629Z,49.57
2018-06-05T06:46:01.996Z,49.01
2018-06-05T06:48:30.419Z,48.87
2018-06-05T06:50:58.773Z,47.75
2018-06-05T06:53:28.015Z,48.18
2018-06-05T06:55:56.303Z,48.20
2018-06-05T06:58:24.653Z,48.44
2018-06-05T07:00:53.036Z,46.84
2018-06-05T07:03:21.449Z,46.84
2018-06-05T07:05:49.870Z,45.55
2018-06-05T07:08:18.313Z,47.39
2018-06-05T07:10:46.971Z,46.11
2018-06-05T07:13:15.290Z,45.88
2018-06-05T07:15:43.570Z,47.78
2018-06-05T07:18:11.904Z,45.19
2018-06-05T07:20:40.329Z,46.19
2018-06-05T07:23:09.010Z,45.32
2018-06-05T07:25:37.426Z,46.14
2018-06-05T07:28:05.795Z,45.07
2018-06-05T07:30:34.077Z,43.75
2018-06-05T07:33:02.522Z,43.84
2018-06-05T07:35:30.913Z,43.85
2018-06-05T07:37:59.312Z,41.20
2018-06-05T07:40:27.642Z,43.33
2018-06-05T07:42:55.983Z,42.45
2018-06-05T07:45:24.364Z,42.70
2018-06-05T07:47:52.663Z,41.83
2018-06-05T07:50:21.343Z,40.57
2018-06-05T07:52:49.586Z,41.19
2018-06-05T07:55:17.943Z,41.69
2018-06-05T07:57:46.217Z,40.26
2018-06-05T08:00:14.642Z,39.86
2018-06-05T08:02:42.998Z,42.42
2018-06-05T08:05:11.357Z,41.15
2018-06-05T08:07:39.661Z,40.52
2018-06-05T08:10:07.969Z,39.05
2018-06-05T08:12:36.487Z,40.73
2018-06-05T08:15:05.094Z,39.88
2018-06-05T08:17:33.457Z,41.22
2018-06-05T08:20:01.724Z,40.38
2018-06-05T08:23:06.669Z,40.06
2018-06-05T08:25:34.983Z,43.12
2018-06-05T08:28:03.331Z,41.59
2018-06-05T08:30:31.597Z,39.66
2018-06-05T08:32:59.993Z,41.12
2018-06-05T08:35:28.301Z,37.60
2018-06-05T08:37:56.695Z,38.47
2018-06-05T08:40:25.030Z,38.33
2018-06-05T08:42:53.447Z,38.59
2018-06-05T08:45:21.864Z,37.27
2018-06-05T08:47:50.184Z,37.83
2018-06-05T08:50:18.472Z,37.85
2018-06-05T08:52:47.674Z,36.87
2018-06-05T08:55:16.032Z,39.53
2018-06-05T08:57:44.416Z,38.50
2018-06-05T09:00:12.757Z,40.42
2018-06-05T09:02:41.127Z,39.66
2018-06-05T09:05:09.602Z,38.23
2018-06-05T09:07:37.895Z,37.86
2018-06-05T09:10:06.347Z,38.13
2018-06-05T09:12:34.606Z,36.06
2018-06-05T09:15:02.935Z,38.04
2018-06-05T09:17:31.309Z,35.80
2018-06-05T09:19:59.637Z,38.23
2018-06-05T09:22:27.982Z,36.35
2018-06-05T09:24:56.234Z,37.57
2018-06-05T09:27:24.589Z,35.53
2018-06-05T09:29:52.873Z,36.13
2018-06-05T09:32:21.165Z,36.72
2018-06-05T09:34:49.401Z,36.90
2018-06-05T09:37:17.752Z,35.50
2018-06-05T09:39:46.068Z,36.02
2018-06-05T09:42:14.365Z,35.91
2018-06-05T09:44:42.684Z,35.47
2018-06-05T09:47:10.917Z,33.82
2018-06-05T09:49:39.243Z,34.17
2018-06-05T09:52:07.612Z,33.76
2018-06-05T09:54:36.005Z,33.32
2018-06-05T09:57:04.387Z,34.37
2018-06-05T09:59:32.731Z,33.94
2018-06-05T10:02:01.004Z,33.99
2018-06-05T10:04:29.397Z,35.59
2018-06-05T10:06:57.764Z,34.14
2018-06-05T10:09:26.062Z,33.54
2018-06-05T10:11:54.351Z,32.58
2018-06-05T10:14:22.753Z,33.88
2018-06-05T10:16:51.135Z,33.33
2018-06-05T10:19:19.579Z,33.64
2018-06-05T10:21:47.918Z,32.12
2018-06-05T10:24:16.208Z,31.85
2018-06-05T10:26:44.597Z,30.02
2018-06-05T10:29:12.945Z,32.78
2018-06-05T10:31:41.444Z,30.79
2018-06-05T10:34:09.606Z,29.88
2018-06-05T10:36:37.965Z,31.29
2018-06-05T10:39:07.812Z,29.97
2018-06-05T10:41:36.176Z,33.05
2018-06-05T10:44:04.497Z,30.66
2018-06-05T10:46:33.027Z,29.61
2018-06-05T10:49:01.328Z,30.37
2018-06-05T10:51:29.831Z,30.31
2018-06-05T10:53:58.368Z,29.46
2018-06-05T10:56:26.692Z,28.45
2018-06-05T10:58:55.299Z,28.75
2018-06-05T11:01:23.610Z,30.24
2018-06-05T11:03:52.066Z,29.77
2018-06-05T11:06:20.708Z,29.97
2018-06-05T11:08:49.064Z,28.93
2018-06-05T11:11:18.045Z,26.39
2018-06-05T11:13:46.425Z,26.87
2018-06-05T11:16:14.803Z,26.38
2018-06-05T11:18:43.326Z,26.78
2018-06-05T11:21:11.607Z,27.75
2018-06-05T11:23:40.328Z,27.65
2018-06-05T11:26:08.596Z,29.35
2018-06-05T11:28:37.036Z,29.66
2018-06-05T11:31:05.371Z,28.97
2018-06-05T11:33:33.662Z,30.25
2018-06-05T11:36:01.992Z,28.86
2018-06-05T11:38:30.286Z,29.08
2018-06-05T11:40:58.644Z,27.61
2018-06-05T11:43:26.981Z,22.75
2018-06-05T11:45:55.298Z,25.65
2018-06-05T11:48:23.627Z,22.26
2018-06-05T11:50:52.103Z,25.01
2018-06-05T11:53:20.426Z,25.78
2018-06-05T11:55:48.894Z,25.40
2018-06-05T11:58:18.098Z,28.56
2018-06-05T12:00:47.455Z,25.97
2018-06-05T12:03:15.756Z,25.58
2018-06-05T12:05:44.060Z,24.51
2018-06-05T12:08:12.376Z,23.14
2018-06-05T12:10:40.657Z,21.86
2018-06-05T12:13:08.965Z,20.27
2018-06-05T12:15:37.331Z,19.42
2018-06-05T12:18:05.772Z,16.04
2018-06-05T12:20:34.063Z,16.37
2018-06-05T12:23:02.386Z,17.92
2018-06-05T12:25:30.737Z,16.64
2018-06-05T12:27:59.035Z,16.82
2018-06-05T12:30:27.366Z,16.19
2018-06-05T12:32:56.173Z,17.48
2018-06-05T12:35:24.674Z,19.21
2018-06-05T12:37:53.092Z,18.59
2018-06-05T12:40:21.483Z,21.20
2018-06-05T12:42:49.813Z,22.37
2018-06-05T12:45:18.140Z,21.28
2018-06-05T12:47:46.726Z,25.70
2018-06-05T12:50:15.044Z,24.96
2018-06-05T12:52:43.401Z,23.58
2018-06-05T12:55:11.703Z,21.94
2018-06-05T12:57:40.047Z,18.44
2018-06-05T13:00:08.417Z,19.04
2018-06-05T13:02:36.785Z,17.96
2018-06-05T13:05:05.278Z,17.83
2018-06-05T13:07:33.705Z,16.62
2018-06-05T13:10:02.037Z,15.07
2018-06-05T13:12:30.409Z,14.47
2018-06-05T13:14:58.842Z,12.59
2018-06-05T13:17:27.275Z,12.67
2018-06-05T13:19:55.889Z,11.20
2018-06-05T13:22:24.417Z,11.73
2018-06-05T13:24:52.795Z,11.28
2018-06-05T13:27:21.278Z,10.94
2018-06-05T13:29:49.793Z,12.76
2018-06-05T13:32:18.344Z,11.56
2018-06-05T13:34:46.769Z,12.13
2018-06-05T13:37:15.129Z,13.09
2018-06-05T13:39:43.550Z,14.77
2018-06-05T13:42:11.977Z,17.09
2018-06-05T13:44:40.839Z,17.52
2018-06-05T13:47:09.217Z,19.37
2018-06-05T13:49:37.616Z,18.34
2018-06-05T13:52:05.964Z,15.85
2018-06-05T13:54:34.212Z,15.58
2018-06-05T13:57:02.652Z,16.09
2018-06-05T13:59:30.988Z,17.24
2018-06-05T14:01:59.602Z,18.85
2018-06-05T14:04:28.043Z,20.21
2018-06-05T14:06:56.325Z,20.41
2018-06-05T14:09:24.741Z,23.61
2018-06-05T14:11:53.038Z,24.60
2018-06-05T14:14:21.453Z,24.81
2018-06-05T14:16:49.841Z,26.46
2018-06-05T14:19:18.267Z,26.03
2018-06-05T14:21:46.541Z,27.84
2018-06-05T14:24:14.908Z,26.96
2018-06-05T14:26:43.236Z,26.20
2018-06-05T14:29:11.535Z,28.40
2018-06-05T14:31:40.164Z,27.67
2018-06-05T14:34:08.500Z,23.60
2018-06-05T14:36:36.825Z,21.34
2018-06-05T14:39:08.017Z,22.19
2018-06-05T14:41:36.545Z,20.94
2018-06-05T14:44:04.875Z,21.08
2018-06-05T14:46:33.213Z,18.68
2018-06-05T14:49:01.515Z,16.60
2018-06-05T14:51:29.854Z,15.35
2018-06-05T14:53:58.207Z,15.08
2018-06-05T14:56:26.531Z,17.03
2018-06-05T14:58:54.846Z,19.09
2018-06-05T15:01:23.181Z,19.64
2018-06-05T15:03:51.599Z,21.95
2018-06-05T15:06:19.993Z,22.90
2018-06-05T15:08:48.309Z,23.94
2018-06-05T15:11:16.728Z,20.95
2018-06-05T15:13:44.986Z,17.29
2018-06-05T15:16:13.306Z,17.42
2018-06-05T15:18:41.605Z,18.53
2018-06-05T15:21:09.927Z,19.24
2018-06-05T15:23:38.209Z,19.90
2018-06-05T15:26:06.602Z,19.47
2018-06-05T15:28:35.032Z,20.94
2018-06-05T15:31:03.417Z,19.86
2018-06-05T15:33:31.873Z,19.97
2018-06-05T15:36:00.252Z,21.98
2018-06-05T15:38:28.541Z,23.09
2018-06-05T15:40:56.871Z,24.30
2018-06-05T15:43:25.229Z,24.95
2018-06-05T15:45:53.720Z,25.95
2018-06-05T15:48:22.095Z,27.77
2018-06-05T15:50:50.392Z,28.23
2018-06-05T15:53:18.735Z,28.16
2018-06-05T15:55:47.045Z,31.78
2018-06-05T15:58:15.370Z,33.11
2018-06-05T16:00:43.652Z,30.26
2018-06-05T16:03:11.949Z,32.81
2018-06-05T16:05:40.385Z,31.99
2018-06-05T16:08:08.774Z,31.02
2018-06-05T16:10:37.304Z,32.42
2018-06-05T16:13:05.612Z,34.62
2018-06-05T16:15:34.796Z,35.36
2018-06-05T16:18:03.136Z,31.65
2018-06-05T16:20:31.854Z,33.63
2018-06-05T16:23:00.194Z,33.33
2018-06-05T16:25:29.124Z,33.83
2018-06-05T16:27:57.607Z,34.80
2018-06-05T16:30:26.150Z,33.44
2018-06-05T16:32:54.481Z,33.97
2018-06-05T16:35:23.037Z,32.10
2018-06-05T16:37:51.362Z,33.21
2018-06-05T16:40:19.733Z,33.61
2018-06-05T16:42:48.027Z,31.63
2018-06-05T16:45:16.294Z,35.09
2018-06-05T16:47:44.608Z,35.06
2018-06-05T16:50:12.997Z,35.80
2018-06-05T16:52:41.368Z,36.33
2018-06-05T16:55:09.757Z,34.75
2018-06-05T16:57:38.123Z,34.37
2018-06-05T17:00:06.541Z,35.71
2018-06-05T17:02:34.859Z,35.67
2018-06-05T17:05:03.125Z,36.79
2018-06-05T17:07:31.444Z,36.81
2018-06-05T17:10:00.426Z,35.95
2018-06-05T17:12:28.710Z,37.84
2018-06-05T17:14:57.992Z,37.54
2018-06-05T17:17:26.544Z,36.76
2018-06-05T17:19:54.992Z,37.72
2018-06-05T17:22:23.413Z,37.13
2018-06-05T17:24:51.899Z,36.97
2018-06-05T17:27:20.376Z,37.45
2018-06-05T17:29:49.449Z,35.97
2018-06-05T17:32:17.812Z,37.50
2018-06-05T17:34:46.379Z,34.58
2018-06-05T17:37:14.716Z,36.49
2018-06-05T17:39:43.329Z,37.31
2018-06-05T17:42:11.848Z,35.52
2018-06-05T17:44:40.369Z,36.87
2018-06-05T17:47:08.644Z,36.82
2018-06-05T17:49:37.079Z,36.63
2018-06-05T17:52:05.650Z,36.30
2018-06-05T17:54:33.985Z,33.98
2018-06-05T17:57:02.633Z,32.29
2018-06-05T17:59:31.083Z,30.41
2018-06-05T18:01:59.436Z,30.48
2018-06-05T18:04:27.783Z,31.35
2018-06-05T18:06:56.175Z,30.91
2018-06-05T18:09:24.638Z,31.52
2018-06-05T18:11:53.185Z,32.80
2018-06-05T18:14:21.552Z,34.23
2018-06-05T18:16:50.082Z,33.14
2018-06-05T18:19:18.521Z,33.79
2018-06-05T18:21:46.925Z,35.89
2018-06-05T18:24:15.239Z,36.66
2018-06-05T18:26:43.700Z,34.89
2018-06-05T18:29:12.114Z,36.66
2018-06-05T18:31:40.665Z,38.11
2018-06-05T18:34:09.178Z,35.29
2018-06-05T18:36:37.611Z,38.92
2018-06-05T18:39:08.247Z,35.81
2018-06-05T18:41:36.526Z,38.53
2018-06-05T18:44:05.146Z,37.95
2018-06-05T18:46:33.536Z,40.15
2018-06-05T18:49:01.984Z,41.99
2018-06-05T18:51:30.391Z,41.10
2018-06-05T18:53:58.729Z,40.98
2018-06-05T18:56:27.258Z,42.84
2018-06-05T18:58:55.641Z,39.75
2018-06-05T19:01:24.137Z,42.14
2018-06-05T19:03:52.516Z,43.96
2018-06-05T19:06:21.044Z,44.89
2018-06-05T19:08:49.417Z,41.45
2018-06-05T19:11:18.006Z,41.74
2018-06-05T19:13:46.719Z,43.37
2018-06-05T19:16:15.183Z,45.43
2018-06-05T19:18:43.782Z,47.70
2018-06-05T19:21:12.263Z,45.21
2018-06-05T19:29:41.599Z,42.62
2018-06-05T19:32:10.840Z,48.39
2018-06-05T19:34:40.179Z,43.86
2018-06-05T19:37:09.180Z,49.97
2018-06-05T19:39:38.693Z,42.56
2018-06-05T19:42:07.751Z,50.31
2018-06-05T19:44:37.734Z,46.93
2018-06-05T19:47:08.810Z,44.45
2018-06-05T19:49:38.160Z,47.08
2018-06-05T19:52:08.084Z,49.80
2018-06-05T19:54:37.099Z,49.55
2018-06-05T19:57:06.207Z,49.47
2018-06-05T19:59:36.032Z,50.34
2018-06-05T20:02:05.278Z,50.02
2018-06-05T20:04:34.344Z,51.18
2018-06-05T20:07:03.482Z,49.44
2018-06-05T20:09:32.115Z,49.91
2018-06-05T20:12:01.204Z,47.06
2018-06-05T20:14:31.439Z,50.20
2018-06-05T20:17:00.983Z,45.11
2018-06-05T20:19:29.991Z,50.94
2018-06-05T20:22:01.393Z,50.58
2018-06-05T20:24:30.464Z,52.21
2018-06-05T20:26:59.450Z,52.42
2018-06-05T20:29:29.493Z,48.51
2018-06-05T20:31:58.922Z,52.49
2018-06-05T20:34:28.887Z,45.76
2018-06-05T20:36:58.314Z,46.29
2018-06-05T20:39:27.935Z,47.54
2018-06-05T20:41:56.911Z,48.69
2018-06-05T20:44:25.793Z,49.15
2018-06-05T20:46:58.893Z,49.10
2018-06-05T20:49:28.135Z,49.96
2018-06-05T20:51:56.963Z,50.29
2018-06-05T20:54:26.640Z,50.51
2018-06-05T20:56:55.561Z,51.46
2018-06-05T20:59:25.256Z,51.71
2018-06-05T21:01:54.810Z,52.74
2018-06-05T21:04:23.834Z,52.90
2018-06-05T21:06:52.852Z,52.32
2018-06-05T21:09:21.824Z,52.90
2018-06-05T21:11:51.343Z,53.27
2018-06-05T21:14:20.323Z,53.64
2018-06-05T21:16:50.273Z,54.52
2018-06-05T21:19:19.159Z,53.89
2018-06-05T21:21:49.544Z,54.23
2018-06-05T21:24:18.294Z,55.17
2018-06-05T21:26:47.834Z,54.38
2018-06-05T21:29:16.682Z,57.69
2018-06-05T21:31:46.440Z,59.67
2018-06-05T21:34:16.025Z,61.66
2018-06-05T21:36:45.464Z,54.23
2018-06-05T21:39:14.570Z,52.04
2018-06-05T21:41:43.873Z,52.31
2018-06-05T21:44:12.685Z,59.91
2018-06-05T21:46:42.376Z,53.79
2018-06-05T21:49:11.455Z,53.60
2018-06-05T21:51:40.362Z,55.29
2018-06-05T21:54:09.860Z,54.54
2018-06-05T21:56:38.835Z,55.20
2018-06-05T21:59:07.544Z,59.24
2018-06-05T22:01:36.469Z,55.31
2018-06-05T22:04:05.206Z,55.51
2018-06-05T22:06:36.396Z,56.18
2018-06-05T22:09:11.523Z,57.00
2018-06-05T22:11:43.966Z,57.24
2018-06-05T22:14:22.684Z,57.78
2018-06-05T22:16:52.029Z,58.88
2018-06-05T22:19:21.716Z,59.58
2018-06-05T22:21:50.898Z,60.47
2018-06-05T22:24:20.896Z,58.20
2018-06-05T22:26:55.265Z,58.00
2018-06-05T22:29:26.771Z,57.72
2018-06-05T22:31:57.227Z,57.58
2018-06-05T22:34:27.477Z,61.61
2018-06-05T22:36:58.043Z,57.71
2018-06-05T22:39:27.834Z,58.48
2018-06-05T22:42:15.115Z,57.46
2018-06-05T22:44:53.101Z,60.01
2018-06-05T22:47:31.104Z,59.93
2018-06-05T22:50:06.602Z,57.33
2018-06-05T22:52:40.249Z,56.76
2018-06-05T22:55:33.200Z,57.40
2018-06-05T22:58:12.507Z,56.82
2018-06-05T23:00:49.917Z,56.15
2018-06-05T23:03:28.037Z,56.95
2018-06-05T23:06:02.867Z,57.58
2018-06-05T23:08:38.244Z,57.70
2018-06-05T23:11:16.309Z,58.43
2018-06-05T23:13:49.871Z,62.49
2018-06-05T23:16:22.958Z,61.37
2018-06-05T23:18:56.658Z,55.97
2018-06-05T23:21:34.513Z,56.13
2018-06-05T23:24:09.381Z,56.82
2018-06-05T23:26:51.956Z,61.68
2018-06-05T23:29:28.117Z,56.36
2018-06-05T23:32:05.667Z,56.54
2018-06-05T23:37:24.866Z,57.32
2018-06-05T23:40:00.011Z,57.80
2018-06-05T23:42:36.220Z,58.09
2018-06-05T23:45:12.107Z,58.59
2018-06-05T23:47:45.607Z,58.53
2018-06-05T23:50:17.817Z,59.19
2018-06-05T23:52:53.503Z,58.34
2018-06-05T23:55:30.877Z,59.19
2018-06-05T23:58:05.365Z,58.99
